createdAt,value
2023-07-29T00:04:12.748Z,18.20
2023-07-29T00:09:15.672Z,18.10
2023-07-29T00:14:18.538Z,18.20
2023-07-29T00:19:24.885Z,18.00
2023-07-29T00:24:27.306Z,18.00
2023-07-29T00:29:29.459Z,17.90
2023-07-29T00:34:32.181Z,17.80
2023-07-29T00:39:34.509Z,17.90
2023-07-29T00:44:36.984Z,17.90
2023-07-29T00:49:39.263Z,17.70
2023-07-29T00:54:41.891Z,17.60
2023-07-29T00:59:44.435Z,17.50
2023-07-29T01:04:46.488Z,17.40
2023-07-29T01:10:07.449Z,17.40
2023-07-29T01:15:23.667Z,17.40
2023-07-29T01:20:26.757Z,17.40
2023-07-29T01:25:28.838Z,17.40
2023-07-29T01:30:38.904Z,17.30
2023-07-29T01:35:47.972Z,17.40
2023-07-29T01:40:52.182Z,17.30
2023-07-29T01:46:00.808Z,17.30
2023-07-29T01:51:03.557Z,17.20
2023-07-29T01:56:34.497Z,17.20
2023-07-29T02:01:38.127Z,17.10
2023-07-29T02:06:59.923Z,17.00
2023-07-29T02:12:08.816Z,17.10
2023-07-29T02:17:14.728Z,17.10
2023-07-29T02:22:21.532Z,17.00
2023-07-29T02:28:17.302Z,16.90
2023-07-29T02:33:37.271Z,16.80
2023-07-29T02:44:39.210Z,17.00
2023-07-29T02:50:03.338Z,17.10
2023-07-29T02:55:15.178Z,17.10
2023-07-29T03:00:31.954Z,17.20
2023-07-29T03:05:43.714Z,17.20
2023-07-29T03:11:01.719Z,17.20
2023-07-29T03:16:30.921Z,17.30
2023-07-29T03:21:58.734Z,17.30
2023-07-29T03:27:37.810Z,17.40
2023-07-29T03:38:11.242Z,17.50
2023-07-29T03:43:45.567Z,17.50
2023-07-29T03:49:05.735Z,17.50
2023-07-29T03:54:16.074Z,17.50
2023-07-29T03:59:33.708Z,17.60
2023-07-29T04:04:57.941Z,17.60
2023-07-29T04:16:49.898Z,17.50
2023-07-29T04:22:15.066Z,17.50
2023-07-29T04:33:03.906Z,17.60
2023-07-29T04:38:53.255Z,17.60
2023-07-29T04:44:13.522Z,17.70
2023-07-29T04:49:16.967Z,17.70
2023-07-29T04:54:22.241Z,17.80
2023-07-29T04:59:34.804Z,17.80
2023-07-29T05:05:08.422Z,17.80
2023-07-29T05:10:12.866Z,17.90
2023-07-29T05:15:20.116Z,18.00
2023-07-29T05:20:26.048Z,18.10
2023-07-29T05:25:28.630Z,18.10
2023-07-29T05:30:41.950Z,18.20
2023-07-29T05:35:45.327Z,18.30
2023-07-29T05:40:50.102Z,18.40
2023-07-29T05:45:52.258Z,18.40
2023-07-29T05:50:54.406Z,18.40
2023-07-29T05:55:56.556Z,18.50
2023-07-29T06:00:59.789Z,18.50
2023-07-29T06:06:02.060Z,18.60
2023-07-29T06:11:04.161Z,18.60
2023-07-29T06:16:06.240Z,18.70
2023-07-29T06:21:09.358Z,18.70
2023-07-29T06:26:18.150Z,18.70
2023-07-29T06:31:20.292Z,18.70
2023-07-29T06:36:22.685Z,18.70
2023-07-29T06:41:24.754Z,18.80
2023-07-29T06:46:26.918Z,18.90
2023-07-29T06:51:33.672Z,18.90
2023-07-29T06:56:35.961Z,19.10
2023-07-29T07:01:38.268Z,19.30
2023-07-29T07:06:40.354Z,19.30
2023-07-29T07:11:42.581Z,19.30
2023-07-29T07:16:44.743Z,19.40
2023-07-29T07:21:47.206Z,19.40
2023-07-29T07:26:50.124Z,19.40
2023-07-29T07:31:54.522Z,19.40
2023-07-29T07:36:56.660Z,19.40
2023-07-29T07:41:58.805Z,19.50
2023-07-29T07:47:02.983Z,19.60
2023-07-29T07:52:07.163Z,19.70
2023-07-29T07:57:09.268Z,19.80
2023-07-29T08:02:11.494Z,19.80
2023-07-29T08:07:14.818Z,19.70
2023-07-29T08:12:19.736Z,19.80
2023-07-29T08:17:22.324Z,19.70
2023-07-29T08:22:24.767Z,19.90
2023-07-29T08:27:26.847Z,19.80
2023-07-29T08:32:29.206Z,19.90
2023-07-29T08:37:32.701Z,20.00
2023-07-29T08:42:36.035Z,20.10
2023-07-29T08:47:38.419Z,20.30
2023-07-29T08:52:42.008Z,20.30
2023-07-29T08:57:44.794Z,20.20
2023-07-29T09:02:46.988Z,20.40
2023-07-29T09:07:53.526Z,20.60
2023-07-29T09:12:57.433Z,20.70
2023-07-29T09:18:02.978Z,20.70
2023-07-29T09:23:09.876Z,21.10
2023-07-29T09:28:13.806Z,21.40
2023-07-29T09:33:15.963Z,21.60
2023-07-29T09:38:18.125Z,22.00
2023-07-29T09:43:20.360Z,22.40
2023-07-29T09:48:25.574Z,22.50
2023-07-29T09:53:28.344Z,22.70
2023-07-29T09:58:30.792Z,23.10
2023-07-29T10:03:33.760Z,22.70
2023-07-29T10:08:41.794Z,25.00
2023-07-29T10:13:47.953Z,26.60
2023-07-29T10:18:59.939Z,24.00
2023-07-29T10:24:06.160Z,22.80
2023-07-29T10:29:11.216Z,23.00
2023-07-29T10:34:14.667Z,26.00
2023-07-29T10:39:16.892Z,28.20
2023-07-29T10:44:53.092Z,28.90
2023-07-29T10:49:57.666Z,28.40
2023-07-29T10:55:00.778Z,26.30
2023-07-29T11:00:06.183Z,24.90
2023-07-29T11:05:19.427Z,24.00
2023-07-29T11:10:22.626Z,23.20
2023-07-29T11:15:29.785Z,22.60
2023-07-29T11:20:33.981Z,22.30
2023-07-29T11:25:37.196Z,22.30
2023-07-29T11:30:42.190Z,22.50
2023-07-29T11:35:44.772Z,23.30
2023-07-29T11:41:05.326Z,23.50
2023-07-29T11:46:07.471Z,24.80
2023-07-29T11:51:09.695Z,26.70
2023-07-29T11:56:14.244Z,26.70
2023-07-29T12:01:16.554Z,28.70
2023-07-29T12:06:19.289Z,29.80
2023-07-29T12:11:21.946Z,28.30
2023-07-29T12:16:24.219Z,29.10
2023-07-29T12:21:26.593Z,27.40
2023-07-29T12:26:30.777Z,26.80
2023-07-29T12:31:34.328Z,28.30
2023-07-29T12:36:44.878Z,28.20
2023-07-29T12:41:47.768Z,29.20
2023-07-29T12:46:50.863Z,29.30
2023-07-29T12:51:53.330Z,29.40
2023-07-29T12:56:55.733Z,28.80
2023-07-29T13:01:58.079Z,28.30
2023-07-29T13:07:00.989Z,27.90
2023-07-29T13:12:03.422Z,27.10
2023-07-29T13:17:06.538Z,27.60
2023-07-29T13:22:08.969Z,27.10
2023-07-29T13:27:11.604Z,26.80
2023-07-29T13:32:13.851Z,26.90
2023-07-29T13:37:16.250Z,27.40
2023-07-29T13:42:18.511Z,27.00
2023-07-29T13:47:21.003Z,25.40
2023-07-29T13:52:23.337Z,24.30
2023-07-29T13:57:25.763Z,24.80
2023-07-29T14:02:27.991Z,24.20
2023-07-29T14:07:30.543Z,23.60
2023-07-29T14:12:32.860Z,23.20
2023-07-29T14:17:35.299Z,22.90
2023-07-29T14:22:37.826Z,22.90
2023-07-29T14:27:40.321Z,23.10
2023-07-29T14:32:42.871Z,24.00
2023-07-29T14:37:45.074Z,25.10
2023-07-29T14:42:47.468Z,26.70
2023-07-29T14:47:50.011Z,28.00
2023-07-29T14:52:53.031Z,27.90
2023-07-29T14:57:55.352Z,27.50
2023-07-29T15:02:58.057Z,28.60
2023-07-29T15:08:00.558Z,29.00
2023-07-29T15:13:04.022Z,27.50
2023-07-29T15:18:06.662Z,26.00
2023-07-29T15:23:09.236Z,24.70
2023-07-29T15:28:11.847Z,23.90
2023-07-29T15:33:14.850Z,23.30
2023-07-29T15:38:17.181Z,22.70
2023-07-29T15:43:20.123Z,22.20
2023-07-29T15:48:22.474Z,21.30
2023-07-29T15:53:26.047Z,20.10
2023-07-29T15:58:28.346Z,19.50
2023-07-29T16:03:30.647Z,19.40
2023-07-29T16:08:32.859Z,19.60
2023-07-29T16:13:35.001Z,20.60
2023-07-29T16:18:37.353Z,24.50
2023-07-29T16:23:39.700Z,26.00
2023-07-29T16:28:44.976Z,27.90
2023-07-29T16:33:47.378Z,30.50
2023-07-29T16:38:49.815Z,29.10
2023-07-29T16:43:52.395Z,26.50
2023-07-29T16:48:54.669Z,27.70
2023-07-29T16:53:57.446Z,28.50
2023-07-29T16:59:00.218Z,28.20
2023-07-29T17:04:02.794Z,26.80
2023-07-29T17:09:05.088Z,26.80
2023-07-29T17:14:07.571Z,26.00
2023-07-29T17:19:10.000Z,25.50
2023-07-29T17:24:12.260Z,24.80
2023-07-29T17:29:14.880Z,26.00
2023-07-29T17:34:17.269Z,28.40
2023-07-29T17:39:19.882Z,28.70
2023-07-29T17:44:22.409Z,28.70
2023-07-29T17:49:24.640Z,27.90
2023-07-29T17:54:27.095Z,27.90
2023-07-29T17:59:30.121Z,27.60
2023-07-29T18:04:32.435Z,26.80
2023-07-29T18:09:34.906Z,25.30
2023-07-29T18:14:39.420Z,24.10
2023-07-29T18:19:44.407Z,23.10
2023-07-29T18:24:47.571Z,22.10
2023-07-29T18:29:50.081Z,21.50
2023-07-29T18:34:52.515Z,21.00
2023-07-29T18:39:54.654Z,20.80
2023-07-29T18:44:57.120Z,20.50
2023-07-29T18:50:02.322Z,20.30
2023-07-29T18:55:04.809Z,20.00
2023-07-29T19:00:08.427Z,19.80
2023-07-29T19:05:12.909Z,19.70
2023-07-29T19:10:15.443Z,19.60
2023-07-29T19:15:18.041Z,19.40
2023-07-29T19:20:20.575Z,19.30
2023-07-29T19:25:22.933Z,19.20
2023-07-29T19:30:25.705Z,19.00
2023-07-29T19:35:29.529Z,18.90
2023-07-29T19:40:35.585Z,18.80
2023-07-29T19:45:37.947Z,18.70
2023-07-29T19:50:40.256Z,18.70
2023-07-29T19:55:42.836Z,18.50
2023-07-29T20:00:51.910Z,18.50
2023-07-29T20:05:54.520Z,18.40
2023-07-29T20:10:56.671Z,18.30
2023-07-29T20:15:59.043Z,18.20
2023-07-29T20:21:01.650Z,18.20
2023-07-29T20:26:04.006Z,18.20
2023-07-29T20:31:06.574Z,18.20
2023-07-29T20:36:08.881Z,18.20
2023-07-29T20:41:11.369Z,18.10
2023-07-29T20:46:25.028Z,18.10
2023-07-29T20:51:27.721Z,18.20
2023-07-29T20:56:30.079Z,18.20
2023-07-29T21:01:32.456Z,18.20
2023-07-29T21:06:36.289Z,18.40
2023-07-29T21:11:39.404Z,18.40
2023-07-29T21:16:41.972Z,18.40
2023-07-29T21:21:44.771Z,18.40
2023-07-29T21:26:46.958Z,18.30
2023-07-29T21:31:49.559Z,18.20
2023-07-29T21:36:51.859Z,17.90
2023-07-29T21:41:54.313Z,17.70
2023-07-29T21:46:56.676Z,17.40
2023-07-29T21:51:58.925Z,17.10
2023-07-29T21:57:01.138Z,16.90
2023-07-29T22:02:03.685Z,16.80
2023-07-29T22:07:06.110Z,16.70
2023-07-29T22:12:08.955Z,16.70
2023-07-29T22:17:11.708Z,16.70
2023-07-29T22:22:14.323Z,16.70
2023-07-29T22:27:16.905Z,16.70
2023-07-29T22:32:20.193Z,16.70
2023-07-29T22:37:22.713Z,16.70
2023-07-29T22:42:25.103Z,16.60
2023-07-29T22:47:27.525Z,16.50
2023-07-29T22:52:29.960Z,16.50
2023-07-29T22:57:32.193Z,16.40
2023-07-29T23:02:34.988Z,16.30
2023-07-29T23:07:37.535Z,16.20
2023-07-29T23:12:39.859Z,16.20
2023-07-29T23:17:43.152Z,16.10
2023-07-29T23:22:48.851Z,16.10
2023-07-29T23:27:51.341Z,16.10
2023-07-29T23:32:53.975Z,16.10
2023-07-29T23:37:56.695Z,16.10
2023-07-29T23:42:58.978Z,16.10
2023-07-29T23:48:01.675Z,16.10
2023-07-29T23:53:04.248Z,16.10
2023-07-29T23:58:06.923Z,16.20
